Time;durP1;ratioP1;P1;durP2;ratioP2;P2;SDS_P1;SDS_P2;PMS_P1;PMS_P2;Temp;Humidity;BMP_temperature;BMP_pressure;BME280_temperature;BME280_humidity;BME280_pressure;Samples;Min_cycle;Max_cycle;Signal;HPM_P1;HPM_P2
2021/03/25 00:00:39;;;;;;;20.25;14.63;;;;;;;18.12;52.63;102114.81;6230843;23;20013;-78
2021/03/25 00:06:28;;;;;;;17.70;14.48;;;;;;;18.09;52.84;102107.88;6233470;23;20023;-78
2021/03/25 00:08:54;;;;;;;19.05;15.10;;;;;;;18.09;52.78;102102.66;6192749;23;20443;-78
2021/03/25 00:11:29;;;;;;;17.88;14.43;;;;;;;18.06;52.73;102100.91;6202507;23;20001;-78
2021/03/25 00:13:56;;;;;;;18.13;14.85;;;;;;;18.07;52.58;102107.88;6195648;23;20001;-78
2021/03/25 00:16:21;;;;;;;18.70;14.35;;;;;;;18.07;52.53;102107.88;6191626;23;20036;-78
2021/03/25 00:18:47;;;;;;;20.17;14.73;;;;;;;18.08;52.63;102111.34;6192782;23;20008;-78
2021/03/25 00:21:12;;;;;;;17.23;13.90;;;;;;;18.07;52.73;102100.06;6192192;23;20017;-78
2021/03/25 00:23:38;;;;;;;17.30;14.55;;;;;;;18.07;52.39;102104.38;6191527;23;20139;-78
2021/03/25 00:26:04;;;;;;;18.25;14.38;;;;;;;18.06;52.63;102102.66;6191860;23;20023;-78
2021/03/25 00:28:29;;;;;;;20.20;14.63;;;;;;;18.05;52.69;102103.50;6192878;23;20068;-78
2021/03/25 00:30:55;;;;;;;16.25;13.45;;;;;;;18.07;52.87;102096.56;6204124;23;20017;-78
2021/03/25 00:33:22;;;;;;;16.15;14.07;;;;;;;18.07;52.83;102093.94;6200046;23;20001;-78
2021/03/25 00:35:49;;;;;;;16.42;13.52;;;;;;;18.06;52.84;102095.69;6199550;23;20037;-78
2021/03/25 00:38:16;;;;;;;16.60;13.68;;;;;;;18.07;52.64;102089.66;6201961;23;20005;-79
2021/03/25 00:40:43;;;;;;;16.65;13.68;;;;;;;18.06;52.65;102089.63;6202327;23;20085;-78
2021/03/25 00:43:11;;;;;;;17.02;13.43;;;;;;;18.06;52.67;102089.63;6202978;23;20001;-78
2021/03/25 00:45:40;;;;;;;18.30;14.27;;;;;;;18.06;52.71;102092.22;6203026;23;20005;-78
2021/03/25 00:48:06;;;;;;;15.50;12.90;;;;;;;18.06;52.63;102094.84;6203177;23;20005;-78
2021/03/25 00:50:40;;;;;;;17.10;13.60;;;;;;;18.04;52.48;102089.59;6197981;23;20032;-78
2021/03/25 00:53:08;;;;;;;15.77;13.43;;;;;;;18.03;52.62;102087.88;6195577;23;20013;-78
2021/03/25 00:55:33;;;;;;;18.55;14.05;;;;;;;18.03;52.59;102087.88;6190139;23;20028;-78
2021/03/25 00:57:59;;;;;;;16.15;13.57;;;;;;;18.02;52.37;102083.50;6192113;23;20322;-78
2021/03/25 01:00:28;;;;;;;16.98;13.52;;;;;;;18.03;52.86;102086.97;6199793;23;20004;-78
2021/03/25 01:02:54;;;;;;;15.73;13.90;;;;;;;18.04;52.51;102086.13;6197046;23;20705;-78
2021/03/25 01:05:21;;;;;;;17.70;13.52;;;;;;;18.01;52.52;102080.91;6199352;23;20012;-78
2021/03/25 01:07:46;;;;;;;16.20;14.13;;;;;;;18.02;52.46;102083.50;6202284;23;20028;-78
2021/03/25 01:10:36;;;;;;;16.15;13.77;;;;;;;18.00;52.48;102085.22;6231261;23;20031;-78
2021/03/25 01:13:07;;;;;;;16.15;12.98;;;;;;;18.00;52.62;102073.94;6228203;23;19997;-78
2021/03/25 01:15:32;;;;;;;16.02;12.82;;;;;;;18.00;52.39;102071.31;6219291;23;20009;-78
2021/03/25 01:17:59;;;;;;;16.58;14.18;;;;;;;17.99;52.55;102070.47;6194092;23;20008;-78
2021/03/25 01:20:32;;;;;;;16.40;13.38;;;;;;;17.98;52.50;102058.28;6219596;23;20039;-78
2021/03/25 01:22:59;;;;;;;16.75;13.38;;;;;;;18.00;52.64;102066.13;6218742;23;20004;-78
2021/03/25 01:25:27;;;;;;;17.00;13.65;;;;;;;18.02;52.54;102067.00;6194280;23;20015;-78
2021/03/25 01:27:54;;;;;;;15.55;13.20;;;;;;;18.00;52.46;102061.78;6220239;23;20008;-78
2021/03/25 01:30:20;;;;;;;15.48;12.52;;;;;;;18.00;52.41;102063.50;6226860;23;20389;-78
2021/03/25 01:32:46;;;;;;;15.57;13.02;;;;;;;17.99;52.30;102053.97;6200284;23;19997;-78
2021/03/25 01:35:13;;;;;;;14.82;12.45;;;;;;;17.99;52.38;102060.06;6227775;23;20021;-78
2021/03/25 01:37:47;;;;;;;16.05;13.30;;;;;;;18.01;52.23;102062.69;6200742;23;20005;-78
2021/03/25 01:40:19;;;;;;;15.13;12.55;;;;;;;18.00;52.41;102060.91;6227054;23;20004;-79
2021/03/25 01:42:45;;;;;;;14.63;12.65;;;;;;;17.98;52.33;102057.41;6226014;23;20000;-78
2021/03/25 01:45:29;;;;;;;13.75;12.35;;;;;;;17.99;52.39;102062.66;6223672;23;20004;-78
2021/03/25 01:47:58;;;;;;;15.07;12.63;;;;;;;17.98;52.40;102063.50;6217820;23;20040;-78
2021/03/25 01:50:24;;;;;;;14.77;12.65;;;;;;;18.00;52.33;102063.50;6196848;23;20072;-78
2021/03/25 01:52:58;;;;;;;14.98;12.77;;;;;;;17.98;52.73;102060.03;6220706;23;20047;-78
2021/03/25 01:55:46;;;;;;;15.15;12.52;;;;;;;17.99;52.48;102067.88;6224254;23;20008;-78
2021/03/25 01:58:46;;;;;;;17.00;12.63;;;;;;;17.99;52.24;102062.66;6223376;23;20004;-78
2021/03/25 02:01:45;;;;;;;12.43;11.13;;;;;;;18.00;52.41;102067.00;6219828;23;20004;-78
2021/03/25 02:04:19;;;;;;;15.10;12.18;;;;;;;17.99;52.44;102062.66;6223342;23;20008;-78
2021/03/25 02:07:09;;;;;;;16.30;12.05;;;;;;;18.00;52.50;102060.91;6225721;23;20001;-79
2021/03/25 02:10:00;;;;;;;15.10;12.15;;;;;;;17.99;52.22;102062.66;6221850;23;20019;-79
2021/03/25 02:12:28;;;;;;;14.05;11.65;;;;;;;17.99;52.52;102059.19;6197821;23;20013;-78
2021/03/25 02:15:05;;;;;;;12.90;11.52;;;;;;;18.00;52.47;102058.31;6198736;23;20017;-79
2021/03/25 02:17:39;;;;;;;13.80;11.40;;;;;;;17.98;52.15;102065.22;6225450;23;20008;-78
2021/03/25 02:20:48;;;;;;;13.02;11.60;;;;;;;17.99;52.19;102056.56;6229097;23;20003;-78
2021/03/25 02:23:48;;;;;;;13.02;11.07;;;;;;;17.99;52.29;102054.84;6204707;23;20013;-78
2021/03/25 02:26:31;;;;;;;15.27;11.73;;;;;;;17.99;52.09;102059.19;6153935;23;20016;-79
2021/03/25 02:29:42;;;;;;;12.80;10.77;;;;;;;17.97;52.38;102051.34;6229405;23;20060;-78
2021/03/25 02:32:13;;;;;;;13.82;11.30;;;;;;;17.96;52.20;102049.59;6108573;23;20030;-78
2021/03/25 02:34:43;;;;;;;13.15;11.20;;;;;;;17.97;52.20;102042.66;6216194;23;20072;-79
2021/03/25 02:37:23;;;;;;;14.93;11.82;;;;;;;17.95;52.15;102050.47;6201948;23;20001;-78
2021/03/25 02:40:08;;;;;;;13.13;10.93;;;;;;;17.95;52.34;102049.59;6227922;23;20009;-78
2021/03/25 02:42:44;;;;;;;13.60;11.35;;;;;;;17.97;52.16;102056.56;6228355;23;20009;-78
2021/03/25 02:45:16;;;;;;;13.77;11.30;;;;;;;17.98;52.23;102052.22;6202573;23;20012;-79
2021/03/25 02:47:45;;;;;;;14.60;11.73;;;;;;;17.97;51.94;102048.75;6220225;23;20064;-78
2021/03/25 02:50:10;;;;;;;14.32;11.13;;;;;;;17.97;52.20;102047.88;6200611;23;20072;-78
2021/03/25 02:52:41;;;;;;;12.90;11.05;;;;;;;17.96;52.33;102046.13;6223168;23;20021;-79
2021/03/25 02:55:11;;;;;;;13.30;10.07;;;;;;;17.96;52.24;102043.50;6223933;23;20007;-78
2021/03/25 02:57:39;;;;;;;12.77;11.45;;;;;;;17.97;52.19;102047.88;6196443;23;20146;-79
2021/03/25 03:00:14;;;;;;;14.98;11.68;;;;;;;17.94;52.11;102043.50;6224327;23;20052;-78
2021/03/25 03:02:45;;;;;;;12.90;11.32;;;;;;;17.93;51.92;102039.16;6222236;23;20067;-79
2021/03/25 03:05:29;;;;;;;13.50;11.00;;;;;;;17.96;52.24;102043.50;6171804;23;20032;-79
2021/03/25 03:08:00;;;;;;;12.68;10.73;;;;;;;17.95;52.14;102045.25;6194707;23;20016;-79
2021/03/25 03:10:36;;;;;;;11.98;10.30;;;;;;;17.94;52.05;102046.09;6222414;23;20008;-79
2021/03/25 03:13:03;;;;;;;12.95;10.32;;;;;;;17.94;52.07;102048.69;6221263;23;20012;-79
2021/03/25 03:16:01;;;;;;;12.90;10.68;;;;;;;17.94;52.14;102051.31;6171290;23;20008;-79
2021/03/25 03:18:49;;;;;;;12.40;11.10;;;;;;;17.94;52.08;102045.22;6214224;23;20015;-79
2021/03/25 03:21:23;;;;;;;12.35;10.02;;;;;;;17.95;52.11;102047.00;6221209;23;20004;-79
2021/03/25 03:23:50;;;;;;;12.40;10.75;;;;;;;17.93;51.75;102051.31;6220915;23;20481;-79
2021/03/25 03:26:20;;;;;;;12.35;10.25;;;;;;;17.93;52.16;102049.56;6220755;23;20011;-78
2021/03/25 03:28:49;;;;;;;11.75;9.88;;;;;;;17.93;52.29;102049.56;6223194;23;20005;-78
2021/03/25 03:31:30;;;;;;;15.30;10.77;;;;;;;17.90;52.15;102044.34;6223905;23;20001;-78
2021/03/25 03:34:04;;;;;;;11.63;10.07;;;;;;;17.92;52.08;102044.34;6222993;23;20584;-79
2021/03/25 03:36:30;;;;;;;;;;;;;;;17.94;52.23;102040.03;6196805;23;20063;-78
2021/03/25 03:39:23;;;;;;;13.52;10.40;;;;;;;17.93;52.14;102038.28;6192271;23;19908;-78
2021/03/25 03:42:01;;;;;;;11.57;10.38;;;;;;;17.92;52.06;102040.03;6190256;23;20034;-79
2021/03/25 03:44:32;;;;;;;11.43;10.02;;;;;;;17.92;52.16;102040.03;6196531;23;20008;-79
2021/03/25 03:47:01;;;;;;;12.80;10.35;;;;;;;17.92;52.22;102034.81;6201097;23;20012;-79
2021/03/25 03:49:40;;;;;;;11.88;9.68;;;;;;;17.91;52.11;102027.00;6209801;23;20024;-79
2021/03/25 03:52:16;;;;;;;11.75;9.93;;;;;;;17.89;52.11;102038.25;6232422;23;20099;-78
2021/03/25 03:54:44;;;;;;;11.68;10.23;;;;;;;17.91;52.13;102030.47;6233220;23;20048;-79
2021/03/25 03:57:53;;;;;;;12.73;10.13;;;;;;;17.92;52.21;102033.94;6210677;23;20021;-79
2021/03/25 04:00:26;;;;;;;11.15;9.90;;;;;;;17.92;52.10;102039.13;6234049;23;20024;-78
2021/03/25 04:03:15;;;;;;;;;;;;;;;17.92;52.20;102039.13;6232180;23;20008;-78
2021/03/25 04:05:46;;;;;;;13.15;9.93;;;;;;;17.90;51.95;102031.34;6221786;23;19908;-78
2021/03/25 04:08:33;;;;;;;11.48;9.50;;;;;;;17.90;52.24;102023.53;6205044;23;20004;-79
2021/03/25 04:11:12;;;;;;;11.85;10.30;;;;;;;17.92;52.17;102036.53;6206846;23;20039;-79
2021/03/25 04:13:42;;;;;;;12.45;9.85;;;;;;;17.89;51.96;102026.97;6180808;23;20027;-79
2021/03/25 04:16:08;;;;;;;10.93;9.70;;;;;;;17.90;52.00;102036.53;6205377;23;20005;-79
2021/03/25 04:18:38;;;;;;;12.20;9.82;;;;;;;17.88;52.17;102030.44;6205350;23;20016;-79
2021/03/25 04:21:27;;;;;;;12.18;10.48;;;;;;;17.88;52.09;102025.25;6206765;23;20056;-78
2021/03/25 04:23:54;;;;;;;10.95;9.77;;;;;;;17.88;52.01;102027.84;6233087;23;20004;-79
2021/03/25 04:26:22;;;;;;;11.43;9.60;;;;;;;17.85;52.24;102015.66;6208632;23;20009;-78
2021/03/25 04:29:07;;;;;;;12.38;9.77;;;;;;;17.84;52.04;102006.09;6212087;23;20005;-78
2021/03/25 04:31:35;;;;;;;11.77;9.95;;;;;;;17.87;52.24;102015.66;6210947;23;19985;-78
2021/03/25 04:34:03;;;;;;;10.73;9.27;;;;;;;17.87;52.07;102013.94;6210629;23;20009;-79
2021/03/25 04:36:33;;;;;;;10.65;9.50;;;;;;;17.89;52.11;102013.94;6186545;23;20061;-80
2021/03/25 04:39:07;;;;;;;10.85;9.75;;;;;;;17.85;52.25;101994.81;6235805;23;20051;-78
2021/03/25 04:41:36;;;;;;;11.20;9.60;;;;;;;17.87;52.32;102015.66;6185373;23;20001;-79
2021/03/25 04:44:06;;;;;;;10.70;9.50;;;;;;;17.86;52.06;102011.34;6185252;23;20012;-79
2021/03/25 04:47:06;;;;;;;11.80;10.13;;;;;;;17.88;52.04;102020.03;6213119;23;20011;-78
2021/03/25 04:49:54;;;;;;;10.35;8.90;;;;;;;17.86;52.00;102009.59;6234460;23;20004;-78
2021/03/25 04:52:27;;;;;;;11.10;9.25;;;;;;;17.85;52.09;102017.38;6235501;23;20010;-78
2021/03/25 04:55:31;;;;;;;11.82;9.65;;;;;;;17.86;52.20;102019.13;6179989;23;20008;-79
2021/03/25 04:58:00;;;;;;;10.98;9.32;;;;;;;17.87;52.05;102018.25;6230073;23;20001;-79
2021/03/25 05:00:30;;;;;;;10.70;9.57;;;;;;;17.83;52.12;102012.19;6202555;23;20008;-79
2021/03/25 05:03:00;;;;;;;10.40;9.25;;;;;;;17.85;52.13;102012.19;6207083;23;20051;-78
2021/03/25 05:05:29;;;;;;;10.30;8.82;;;;;;;17.85;52.09;102005.22;6208473;23;20001;-78
2021/03/25 05:08:02;;;;;;;10.45;9.25;;;;;;;17.85;52.13;101994.81;6240256;23;20004;-78
2021/03/25 05:10:54;;;;;;;;;;;;;;;17.85;52.21;102005.22;6210369;23;20069;-78
2021/03/25 05:13:40;;;;;;;10.00;8.63;;;;;;;17.83;52.11;102006.97;6216170;23;19923;-79
2021/03/25 05:16:33;;;;;;;10.05;9.00;;;;;;;17.85;52.18;102006.97;6228996;23;20035;-79
2021/03/25 05:19:10;;;;;;;11.45;9.90;;;;;;;17.84;52.13;102006.09;6230106;23;20038;-79
2021/03/25 05:21:41;;;;;;;11.05;9.30;;;;;;;17.84;52.05;102002.63;6209790;23;20019;-79
2021/03/25 05:24:24;;;;;;;10.70;9.15;;;;;;;17.83;52.16;102003.47;6237238;23;20462;-79
2021/03/25 05:27:23;;;;;;;10.60;9.10;;;;;;;17.83;52.10;102004.38;6181619;23;20092;-79
2021/03/25 05:29:53;;;;;;;12.10;9.25;;;;;;;17.80;52.07;101986.06;6210395;23;20395;-79
2021/03/25 05:32:22;;;;;;;9.48;8.43;;;;;;;17.82;52.03;101984.38;6213183;23;19988;-79
2021/03/25 05:34:52;;;;;;;9.77;8.77;;;;;;;17.80;52.02;101983.47;6212195;23;20001;-79
2021/03/25 05:37:18;;;;;;;10.07;8.95;;;;;;;17.82;51.90;101987.00;6213372;23;20019;-79
2021/03/25 05:39:45;;;;;;;10.32;8.50;;;;;;;17.85;52.02;101987.00;6212066;23;20004;-79
2021/03/25 05:42:26;;;;;;;10.60;8.68;;;;;;;17.87;52.25;101989.63;6187016;23;20009;-79
2021/03/25 05:45:30;;;;;;;10.32;8.98;;;;;;;17.89;52.29;101983.56;6213398;23;20060;-78
2021/03/25 05:48:03;;;;;;;;;;;;;;;17.93;52.09;101981.88;6240613;23;20004;-79
2021/03/25 05:50:58;;;;;;;10.10;8.57;;;;;;;17.94;52.10;101973.19;6211975;23;19915;-79
2021/03/25 05:53:49;;;;;;;10.18;8.60;;;;;;;17.94;52.18;101982.72;6191906;23;20513;-79
2021/03/25 05:56:30;;;;;;;10.88;8.07;;;;;;;17.95;52.18;101990.56;6209176;23;20004;-79
2021/03/25 05:59:16;;;;;;;10.18;8.05;;;;;;;17.98;52.20;102010.53;6231433;23;20019;-79
2021/03/25 06:02:12;;;;;;;10.05;8.90;;;;;;;17.97;52.09;102025.31;6212329;23;20024;-78
2021/03/25 06:07:54;;;;;;;9.38;8.18;;;;;;;17.94;52.33;102019.19;6302488;22;20101;-79
2021/03/25 06:10:38;;;;;;;9.50;8.38;;;;;;;17.96;52.23;102026.16;6210086;23;20033;-78
2021/03/25 06:13:11;;;;;;;9.25;8.10;;;;;;;17.97;52.57;102021.84;6185009;23;19989;-79
2021/03/25 06:15:49;;;;;;;;;;;;;;;18.01;52.60;102015.78;6210195;23;20005;-80
2021/03/25 06:18:36;;;;;;;19.77;10.82;;;;;;;18.04;52.59;102010.59;6206576;23;19908;-79
2021/03/25 06:21:12;;;;;;;23.10;10.85;;;;;;;18.01;52.55;102013.19;6177851;23;20010;-79
2021/03/25 06:23:52;;;;;;;20.08;10.90;;;;;;;17.99;53.08;102007.09;6179319;23;20016;-79
2021/03/25 06:26:39;;;;;;;18.27;10.48;;;;;;;18.02;52.74;102004.50;6182190;23;20005;-80
2021/03/25 06:29:17;;;;;;;19.02;10.30;;;;;;;18.06;52.79;102016.69;6206264;23;20005;-79
2021/03/25 06:32:03;;;;;;;20.80;11.15;;;;;;;18.08;52.78;102013.22;6205556;23;20008;-79
2021/03/25 06:34:28;;;;;;;22.95;10.00;;;;;;;18.12;52.40;102023.66;6205428;23;20001;-81
2021/03/25 06:37:10;;;;;;;16.50;9.77;;;;;;;18.13;52.50;102015.84;6204907;23;20052;-80
2021/03/25 06:40:14;;;;;;;14.50;9.07;;;;;;;18.12;52.40;102015.84;6207289;23;20053;-79
2021/03/25 06:42:48;;;;;;;14.02;9.07;;;;;;;18.11;52.94;102009.75;6300637;22;19999;-80
2021/03/25 06:45:51;;;;;;;16.13;9.38;;;;;;;18.19;52.25;102017.66;6300545;22;20004;-78
2021/03/25 06:48:37;;;;;;;15.85;9.07;;;;;;;18.31;51.99;102012.50;6267460;22;20003;-78
2021/03/25 06:51:17;;;;;;;13.65;8.60;;;;;;;18.40;51.76;102009.97;6295922;22;20004;-79
2021/03/25 06:53:44;;;;;;;16.02;9.43;;;;;;;18.46;51.62;102009.09;6271380;22;20054;-79
2021/03/25 06:56:15;;;;;;;17.25;9.75;;;;;;;18.56;51.32;102015.25;6294142;22;20020;-80
2021/03/25 06:58:49;;;;;;;21.02;10.23;;;;;;;18.77;50.76;102012.75;6241177;22;20008;-79
2021/03/25 07:01:26;;;;;;;13.23;9.07;;;;;;;18.76;50.87;102017.97;6261993;22;20089;-80
2021/03/25 07:03:57;;;;;;;15.60;9.15;;;;;;;18.62;51.02;102018.75;6287809;22;20004;-80
2021/03/25 07:06:25;;;;;;;15.25;9.68;;;;;;;19.15;49.84;102029.44;6255116;22;20014;-82
2021/03/25 07:08:54;;;;;;;15.35;9.95;;;;;;;19.03;50.12;102025.94;6252793;22;19999;-83
2021/03/25 07:11:20;;;;;;;16.48;9.80;;;;;;;18.90;50.70;102021.50;6280348;22;20057;-86
2021/03/25 07:14:06;;;;;;;14.68;9.45;;;;;;;18.81;50.68;102024.94;6261988;22;20029;-80
2021/03/25 07:16:45;;;;;;;12.35;9.40;;;;;;;18.75;50.95;102022.31;6265964;22;20133;-85
2021/03/25 07:19:22;;;;;;;13.43;9.13;;;;;;;18.73;51.21;102033.56;6295934;22;20000;-81
2021/03/25 07:21:50;;;;;;;12.73;8.75;;;;;;;18.70;50.83;102024.91;6295128;22;20034;-80
2021/03/25 07:24:29;;;;;;;13.15;9.15;;;;;;;18.93;50.67;102034.56;6271232;22;20012;-82
2021/03/25 07:27:13;;;;;;;12.73;9.45;;;;;;;18.77;51.02;102035.31;6265380;22;20007;-82
2021/03/25 07:29:43;;;;;;;9.95;8.23;;;;;;;18.58;51.50;102039.59;6272407;22;20003;-79
2021/03/25 07:32:31;;;;;;;14.02;9.15;;;;;;;18.47;51.77;102040.41;6303571;22;20015;-79
2021/03/25 07:34:59;;;;;;;12.38;8.73;;;;;;;18.43;51.82;102051.66;6275564;22;20007;-79
2021/03/25 07:37:41;;;;;;;11.02;8.88;;;;;;;18.38;51.96;102042.97;6300022;22;19992;-79
2021/03/25 07:40:26;;;;;;;14.00;8.82;;;;;;;18.35;52.03;102050.75;6275616;22;19992;-80
2021/03/25 07:42:56;;;;;;;12.30;8.80;;;;;;;18.35;52.10;102053.34;6275208;22;20019;-79
2021/03/25 07:45:27;;;;;;;12.90;8.77;;;;;;;18.34;52.09;102062.03;6276360;22;20023;-79
2021/03/25 07:47:56;;;;;;;11.93;8.57;;;;;;;18.33;52.30;102062.03;6302828;22;19999;-79
2021/03/25 07:50:36;;;;;;;11.50;8.13;;;;;;;18.30;52.36;102071.56;6275093;22;20022;-79
2021/03/25 07:53:25;;;;;;;10.15;8.35;;;;;;;18.29;52.54;102077.66;6232439;23;20029;-78
2021/03/25 07:56:06;;;;;;;12.98;8.20;;;;;;;18.28;52.35;102068.06;6231386;23;20012;-79
2021/03/25 07:58:42;;;;;;;14.60;8.50;;;;;;;18.28;52.43;102069.81;6207051;23;20530;-79
2021/03/25 08:01:13;;;;;;;11.68;8.25;;;;;;;18.30;52.32;102075.91;6184947;23;20024;-81
2021/03/25 08:03:55;;;;;;;10.80;8.13;;;;;;;18.27;52.28;102074.16;6209427;23;20035;-78
2021/03/25 08:06:44;;;;;;;8.57;7.05;;;;;;;18.29;52.57;102080.25;6213314;23;20008;-79
2021/03/25 08:09:15;;;;;;;11.40;8.23;;;;;;;18.28;52.24;102078.50;6213065;23;20000;-79
2021/03/25 08:12:02;;;;;;;9.40;8.00;;;;;;;18.28;52.49;102070.69;6213231;23;20064;-80
2021/03/25 08:14:39;;;;;;;10.10;7.65;;;;;;;18.32;52.46;102081.16;6240157;23;20004;-80
2021/03/25 08:17:15;;;;;;;11.43;7.88;;;;;;;18.32;52.31;102068.13;6214985;23;20009;-79
2021/03/25 08:19:49;;;;;;;10.13;7.70;;;;;;;18.34;52.36;102079.41;6213638;23;20004;-79
2021/03/25 08:22:34;;;;;;;10.00;7.90;;;;;;;18.31;52.35;102082.84;6213201;23;20072;-79
2021/03/25 08:25:08;;;;;;;9.65;7.32;;;;;;;18.29;52.64;102084.56;6268755;22;20059;-79
2021/03/25 08:27:52;;;;;;;9.52;7.15;;;;;;;18.26;52.48;102085.44;6299712;22;20006;-80
2021/03/25 08:30:31;;;;;;;10.68;7.82;;;;;;;18.23;52.61;102090.63;6275691;22;20027;-81
2021/03/25 08:35:30;;;;;;;10.13;7.70;;;;;;;18.18;52.53;102081.91;6268110;22;20002;-79
2021/03/25 08:38:49;;;;;;;9.63;7.25;;;;;;;18.16;52.48;102075.81;6265977;23;20078;-79
2021/03/25 08:41:24;;;;;;;9.48;7.50;;;;;;;18.21;52.78;102081.94;6185075;23;20048;-79
2021/03/25 08:44:11;;;;;;;8.77;6.93;;;;;;;18.21;52.44;102079.31;6242803;23;20008;-80
2021/03/25 08:47:00;;;;;;;9.57;7.32;;;;;;;18.20;52.75;102080.16;6240821;23;20008;-79
2021/03/25 08:49:34;;;;;;;9.75;7.28;;;;;;;18.19;52.61;102083.66;6215370;23;20004;-80
2021/03/25 08:52:06;;;;;;;9.18;7.57;;;;;;;18.19;52.73;102075.81;6267131;23;20046;-79
2021/03/25 08:55:17;;;;;;;10.07;7.75;;;;;;;18.18;52.70;102076.72;6241316;23;20004;-78
2021/03/25 08:57:43;;;;;;;8.90;7.45;;;;;;;18.20;52.67;102071.47;6255616;23;20008;-79
2021/03/25 09:00:17;;;;;;;9.73;7.57;;;;;;;18.24;52.46;102076.72;6241852;23;20011;-79
2021/03/25 09:03:09;;;;;;;8.60;7.35;;;;;;;18.23;52.55;102087.16;6241684;23;20001;-79
2021/03/25 09:06:05;;;;;;;11.48;7.93;;;;;;;18.23;52.59;102074.13;6240620;23;20004;-79
2021/03/25 09:08:36;;;;;;;8.88;6.57;;;;;;;18.24;52.54;102074.13;6236527;23;20011;-79
2021/03/25 09:11:06;;;;;;;8.40;7.00;;;;;;;18.26;52.66;102085.44;6211251;23;20029;-81
2021/03/25 09:13:45;;;;;;;10.15;7.28;;;;;;;18.27;52.43;102078.50;6233374;23;20064;-80
2021/03/25 09:16:22;;;;;;;8.10;6.72;;;;;;;18.32;52.34;102073.31;6207266;23;20015;-80
2021/03/25 09:18:49;;;;;;;7.35;6.22;;;;;;;18.30;52.30;102066.34;6207801;23;20006;-79
2021/03/25 09:21:28;;;;;;;9.07;7.03;;;;;;;18.30;52.36;102078.53;6207451;23;20388;-80
2021/03/25 09:24:08;;;;;;;9.27;6.85;;;;;;;18.29;52.29;102085.47;6235404;23;20004;-79
2021/03/25 09:26:40;;;;;;;8.30;6.75;;;;;;;18.27;52.41;102074.16;6209926;23;20005;-79
2021/03/25 09:29:11;;;;;;;8.13;6.82;;;;;;;18.21;52.54;102076.72;6236491;23;20027;-82
2021/03/25 09:34:11;;;;;;;9.67;6.67;;;;;;;18.25;52.44;102073.28;6294956;22;20417;-80
2021/03/25 09:36:47;;;;;;;8.40;6.28;;;;;;;18.27;52.34;102076.78;6296614;22;20242;-80
2021/03/25 09:39:25;;;;;;;6.93;5.88;;;;;;;18.28;52.33;102078.50;6269398;22;20011;-81
2021/03/25 09:41:51;;;;;;;7.18;6.28;;;;;;;18.26;52.50;102072.41;6296063;22;20022;-79
2021/03/25 09:44:39;;;;;;;7.25;6.00;;;;;;;18.27;52.49;102074.16;6241416;22;20011;-80
2021/03/25 09:47:11;;;;;;;8.63;6.63;;;;;;;18.28;52.14;102068.06;6265555;22;20008;-79
2021/03/25 09:49:42;;;;;;;6.57;5.57;;;;;;;18.35;52.46;102068.13;6263885;22;20009;-79
2021/03/25 09:52:07;;;;;;;6.53;5.82;;;;;;;18.40;52.28;102069.91;6263045;22;20035;-80
2021/03/25 09:54:47;;;;;;;7.28;6.13;;;;;;;18.47;51.95;102065.59;6295049;22;20003;-80
2021/03/25 09:57:25;;;;;;;6.57;5.30;;;;;;;18.57;51.71;102071.72;6249379;22;20007;-80
2021/03/25 10:00:06;;;;;;;7.60;6.13;;;;;;;18.60;51.93;102056.13;6296599;22;20007;-80
2021/03/25 10:02:37;;;;;;;7.65;5.55;;;;;;;18.60;51.89;102059.59;6263907;22;20003;-80
2021/03/25 10:05:24;;;;;;;7.07;5.60;;;;;;;18.55;51.89;102065.63;6263010;22;20018;-80
2021/03/25 10:08:12;;;;;;;5.82;4.97;;;;;;;18.50;52.25;102070.81;6263813;22;20010;-78
2021/03/25 10:10:45;;;;;;;7.30;5.32;;;;;;;18.43;52.19;102064.69;6263033;22;20065;-80
2021/03/25 10:13:29;;;;;;;6.25;5.25;;;;;;;18.43;52.39;102069.06;6262224;22;20014;-80
2021/03/25 10:16:15;;;;;;;5.38;4.75;;;;;;;18.43;52.49;102074.25;6262627;22;20026;-79
2021/03/25 10:18:46;;;;;;;7.85;5.88;;;;;;;18.39;52.34;102077.72;6291190;22;20463;-80
2021/03/25 10:21:37;;;;;;;6.25;5.50;;;;;;;18.38;52.38;102076.84;6290000;22;20010;-80
2021/03/25 10:24:15;;;;;;;7.28;5.35;;;;;;;18.37;52.48;102077.69;6288114;22;20016;-80
2021/03/25 10:26:43;;;;;;;5.68;4.82;;;;;;;18.37;52.49;102082.03;6290419;22;20007;-80
2021/03/25 10:29:27;;;;;;;5.85;4.65;;;;;;;18.41;52.67;102084.66;6288420;22;20006;-80
2021/03/25 10:31:55;;;;;;;;;;;;;;;18.44;52.52;102083.81;6268154;22;20034;-80
2021/03/25 10:34:26;;;;;;;5.53;4.72;;;;;;;18.49;52.37;102076.91;6266854;22;19910;-81
2021/03/25 10:37:25;;;;;;;7.00;4.82;;;;;;;18.48;52.58;102080.38;6270596;22;20010;-80
2021/03/25 10:40:21;;;;;;;6.07;4.80;;;;;;;18.48;52.60;102077.75;6217134;22;1127861;-79
2021/03/25 10:43:17;;;;;;;5.50;4.38;;;;;;;18.49;52.33;102082.13;6234503;23;20013;-80
2021/03/25 10:45:49;;;;;;;5.30;4.22;;;;;;;18.52;52.21;102071.72;6241146;23;20001;-78
2021/03/25 10:48:23;;;;;;;5.25;4.75;;;;;;;18.49;52.40;102072.56;6241263;23;19991;-78
2021/03/25 10:50:57;;;;;;;6.22;4.35;;;;;;;18.53;52.15;102072.56;6239747;23;20000;-78
2021/03/25 10:53:30;;;;;;;5.57;4.80;;;;;;;18.53;52.29;102070.88;6214661;23;20020;-78
2021/03/25 10:56:12;;;;;;;5.03;4.45;;;;;;;18.55;52.15;102071.72;6238125;23;20060;-78
2021/03/25 10:58:41;;;;;;;4.68;4.20;;;;;;;18.62;51.95;102075.25;6235977;23;20007;-78
2021/03/25 11:01:16;;;;;;;6.00;4.60;;;;;;;18.58;52.23;102066.53;6233464;23;19996;-79
2021/03/25 11:03:43;;;;;;;5.90;4.45;;;;;;;18.60;52.06;102067.41;6236590;23;20019;-78
2021/03/25 11:06:23;;;;;;;4.93;4.30;;;;;;;18.69;51.98;102077.03;6206092;23;20020;-78
2021/03/25 11:08:48;;;;;;;5.22;4.30;;;;;;;18.68;51.63;102076.16;6208978;23;20012;-79
2021/03/25 11:11:21;;;;;;;5.13;4.13;;;;;;;18.67;51.92;102073.53;6208472;23;20028;-77
2021/03/25 11:14:02;;;;;;;5.93;4.70;;;;;;;18.68;52.15;102075.28;6259207;22;20020;-79
2021/03/25 11:16:28;;;;;;;4.80;4.07;;;;;;;18.62;52.09;102070.03;6273455;22;20016;-79
2021/03/25 11:19:04;;;;;;;4.47;4.07;;;;;;;18.61;52.05;102083.94;6275172;22;20008;-78
2021/03/25 11:21:42;;;;;;;6.38;4.40;;;;;;;18.58;52.08;102069.16;6275296;22;19996;-79
2021/03/25 11:24:17;;;;;;;5.10;4.07;;;;;;;18.63;51.98;102083.06;6300342;22;20004;-78
2021/03/25 11:26:46;;;;;;;5.65;4.50;;;;;;;18.66;51.86;102074.38;6272206;22;20004;-78
2021/03/25 11:29:16;;;;;;;4.68;4.18;;;;;;;18.71;51.54;102076.16;6248460;22;20055;-78
2021/03/25 11:31:44;;;;;;;4.60;4.15;;;;;;;18.79;51.28;102084.09;6270968;22;20011;-78
2021/03/25 11:34:25;;;;;;;5.20;3.60;;;;;;;18.93;51.25;102076.31;6297123;22;20082;-81
2021/03/25 11:36:51;;;;;;;4.65;4.05;;;;;;;18.93;51.30;102075.44;6266901;22;20011;-83
2021/03/25 11:39:36;;;;;;;4.90;3.92;;;;;;;18.94;51.31;102069.34;6295101;22;20000;-78
2021/03/25 11:42:03;;;;;;;4.78;3.88;;;;;;;18.94;51.29;102066.75;6293012;22;20007;-80
2021/03/25 11:44:48;;;;;;;5.07;3.78;;;;;;;18.96;51.17;102065.00;6292944;22;20011;-78
2021/03/25 11:47:39;;;;;;;5.40;3.90;;;;;;;18.90;51.25;102069.34;6240913;22;20016;-79
2021/03/25 11:50:27;;;;;;;5.05;4.20;;;;;;;18.94;51.16;102059.78;6266785;22;20086;-79
2021/03/25 11:52:58;;;;;;;4.47;3.78;;;;;;;18.97;51.25;102059.81;6264542;22;20006;-78
2021/03/25 11:55:34;;;;;;;5.07;3.92;;;;;;;18.96;51.09;102065.88;6242270;22;20007;-79
2021/03/25 11:58:28;;;;;;;3.95;3.53;;;;;;;18.96;51.11;102067.63;6294724;22;20279;-79
2021/03/25 12:01:20;;;;;;;4.72;3.60;;;;;;;18.90;51.25;102058.03;6267764;22;20010;-81
2021/03/25 12:04:14;;;;;;;4.30;3.70;;;;;;;18.87;51.70;102050.19;6271279;22;20034;-79
2021/03/25 12:07:08;;;;;;;5.13;3.90;;;;;;;18.83;51.40;102064.09;6256485;22;20004;-79
2021/03/25 12:09:35;;;;;;;4.47;3.58;;;;;;;18.80;51.64;102069.28;6275894;22;20010;-82
2021/03/25 12:12:02;;;;;;;4.72;3.70;;;;;;;18.78;51.74;102058.84;6303035;22;20041;-80
2021/03/25 12:14:29;;;;;;;4.63;3.88;;;;;;;18.76;51.54;102072.72;6293561;22;20016;-79